sensor_id;sensor_type;location;lat;lon;timestamp;P1;durP1;ratioP1;P2;durP2;ratioP2
28509;SDS011;15723;55.684;37.928;2022-09-25T00:01:25;3.30;;;2.30;;
28509;SDS011;15723;55.684;37.928;2022-09-25T00:03:51;3.58;;;2.60;;
28509;SDS011;15723;55.684;37.928;2022-09-25T00:06:19;4.53;;;2.67;;
28509;SDS011;15723;55.684;37.928;2022-09-25T00:08:47;3.28;;;2.03;;
28509;SDS011;15723;55.684;37.928;2022-09-25T00:11:18;4.50;;;2.00;;
28509;SDS011;15723;55.684;37.928;2022-09-25T00:13:46;4.63;;;2.43;;
28509;SDS011;15723;55.684;37.928;2022-09-25T00:16:14;2.63;;;2.10;;
28509;SDS011;15723;55.684;37.928;2022-09-25T00:18:42;3.58;;;2.22;;
28509;SDS011;15723;55.684;37.928;2022-09-25T00:21:26;4.13;;;2.42;;
28509;SDS011;15723;55.684;37.928;2022-09-25T00:23:59;4.13;;;2.28;;
28509;SDS011;15723;55.684;37.928;2022-09-25T00:26:28;3.57;;;1.93;;
28509;SDS011;15723;55.684;37.928;2022-09-25T00:29:00;3.53;;;1.25;;
28509;SDS011;15723;55.684;37.928;2022-09-25T00:31:27;2.50;;;1.00;;
28509;SDS011;15723;55.684;37.928;2022-09-25T00:33:58;0.93;;;0.80;;
28509;SDS011;15723;55.684;37.928;2022-09-25T00:36:26;1.38;;;0.70;;
28509;SDS011;15723;55.684;37.928;2022-09-25T00:38:53;0.98;;;0.65;;
28509;SDS011;15723;55.684;37.928;2022-09-25T00:41:21;1.42;;;0.82;;
28509;SDS011;15723;55.684;37.928;2022-09-25T00:43:49;0.85;;;0.57;;
28509;SDS011;15723;55.684;37.928;2022-09-25T00:46:37;0.95;;;0.65;;
28509;SDS011;15723;55.684;37.928;2022-09-25T00:49:13;1.52;;;0.50;;
28509;SDS011;15723;55.684;37.928;2022-09-25T00:51:46;0.70;;;0.60;;
28509;SDS011;15723;55.684;37.928;2022-09-25T00:54:22;0.73;;;0.70;;
28509;SDS011;15723;55.684;37.928;2022-09-25T00:56:54;0.50;;;0.50;;
28509;SDS011;15723;55.684;37.928;2022-09-25T00:59:24;2.55;;;0.50;;
28509;SDS011;15723;55.684;37.928;2022-09-25T01:01:55;0.60;;;0.47;;
28509;SDS011;15723;55.684;37.928;2022-09-25T01:04:21;1.17;;;0.60;;
28509;SDS011;15723;55.684;37.928;2022-09-25T01:06:48;0.60;;;0.50;;
28509;SDS011;15723;55.684;37.928;2022-09-25T01:09:15;1.63;;;0.88;;
28509;SDS011;15723;55.684;37.928;2022-09-25T01:11:42;1.10;;;0.80;;
28509;SDS011;15723;55.684;37.928;2022-09-25T01:14:09;1.10;;;0.63;;
28509;SDS011;15723;55.684;37.928;2022-09-25T01:16:46;1.00;;;0.65;;
28509;SDS011;15723;55.684;37.928;2022-09-25T01:19:23;0.93;;;0.77;;
28509;SDS011;15723;55.684;37.928;2022-09-25T01:28:23;0.63;;;0.63;;
28509;SDS011;15723;55.684;37.928;2022-09-25T01:30:43;1.42;;;1.00;;
28509;SDS011;15723;55.684;37.928;2022-09-25T01:33:16;1.40;;;0.88;;
28509;SDS011;15723;55.684;37.928;2022-09-25T01:41:25;1.25;;;0.85;;
28509;SDS011;15723;55.684;37.928;2022-09-25T01:44:08;2.17;;;1.20;;
28509;SDS011;15723;55.684;37.928;2022-09-25T01:46:41;1.05;;;0.93;;
28509;SDS011;15723;55.684;37.928;2022-09-25T01:49:13;1.38;;;1.00;;
28509;SDS011;15723;55.684;37.928;2022-09-25T01:51:57;1.15;;;0.80;;
28509;SDS011;15723;55.684;37.928;2022-09-25T01:54:27;1.80;;;0.88;;
28509;SDS011;15723;55.684;37.928;2022-09-25T01:57:07;2.40;;;1.10;;
28509;SDS011;15723;55.684;37.928;2022-09-25T01:59:36;1.13;;;0.75;;
28509;SDS011;15723;55.684;37.928;2022-09-25T02:02:10;1.58;;;0.85;;
28509;SDS011;15723;55.684;37.928;2022-09-25T02:04:57;1.02;;;0.80;;
28509;SDS011;15723;55.684;37.928;2022-09-25T02:07:29;1.08;;;0.98;;
28509;SDS011;15723;55.684;37.928;2022-09-25T02:10:04;1.90;;;0.90;;
28509;SDS011;15723;55.684;37.928;2022-09-25T02:12:44;1.73;;;1.00;;
28509;SDS011;15723;55.684;37.928;2022-09-25T02:18:07;1.58;;;1.00;;
28509;SDS011;15723;55.684;37.928;2022-09-25T02:20:56;1.20;;;1.10;;
28509;SDS011;15723;55.684;37.928;2022-09-25T02:26:31;2.03;;;1.67;;
28509;SDS011;15723;55.684;37.928;2022-09-25T02:28:59;1.60;;;1.50;;
28509;SDS011;15723;55.684;37.928;2022-09-25T02:31:41;1.95;;;1.77;;
28509;SDS011;15723;55.684;37.928;2022-09-25T02:34:11;1.30;;;1.13;;
28509;SDS011;15723;55.684;37.928;2022-09-25T02:36:37;1.60;;;1.35;;
28509;SDS011;15723;55.684;37.928;2022-09-25T02:39:22;1.58;;;1.20;;
28509;SDS011;15723;55.684;37.928;2022-09-25T02:45:14;1.30;;;1.20;;
28509;SDS011;15723;55.684;37.928;2022-09-25T02:56:19;2.67;;;0.80;;
28509;SDS011;15723;55.684;37.928;2022-09-25T02:59:05;0.70;;;0.70;;
28509;SDS011;15723;55.684;37.928;2022-09-25T03:01:36;1.02;;;0.93;;
28509;SDS011;15723;55.684;37.928;2022-09-25T03:04:06;0.52;;;0.52;;
28509;SDS011;15723;55.684;37.928;2022-09-25T03:06:35;0.65;;;0.63;;
28509;SDS011;15723;55.684;37.928;2022-09-25T03:09:03;1.38;;;0.70;;
28509;SDS011;15723;55.684;37.928;2022-09-25T03:11:31;1.00;;;0.70;;
28509;SDS011;15723;55.684;37.928;2022-09-25T03:14:08;0.80;;;0.60;;
28509;SDS011;15723;55.684;37.928;2022-09-25T03:19:36;0.55;;;0.43;;
28509;SDS011;15723;55.684;37.928;2022-09-25T03:22:03;1.00;;;0.65;;
28509;SDS011;15723;55.684;37.928;2022-09-25T03:24:29;0.75;;;0.40;;
28509;SDS011;15723;55.684;37.928;2022-09-25T03:26:56;0.63;;;0.43;;
28509;SDS011;15723;55.684;37.928;2022-09-25T03:29:22;1.23;;;0.50;;
28509;SDS011;15723;55.684;37.928;2022-09-25T03:31:58;0.40;;;0.40;;
28509;SDS011;15723;55.684;37.928;2022-09-25T03:34:24;1.90;;;0.40;;
28509;SDS011;15723;55.684;37.928;2022-09-25T03:36:50;1.33;;;0.50;;
28509;SDS011;15723;55.684;37.928;2022-09-25T03:39:17;0.93;;;0.60;;
28509;SDS011;15723;55.684;37.928;2022-09-25T03:41:43;1.20;;;0.80;;
28509;SDS011;15723;55.684;37.928;2022-09-25T03:44:10;0.88;;;0.68;;
28509;SDS011;15723;55.684;37.928;2022-09-25T03:46:36;2.33;;;0.70;;
28509;SDS011;15723;55.684;37.928;2022-09-25T03:49:03;0.63;;;0.63;;
28509;SDS011;15723;55.684;37.928;2022-09-25T03:51:30;0.85;;;0.60;;
28509;SDS011;15723;55.684;37.928;2022-09-25T03:53:57;1.70;;;0.70;;
28509;SDS011;15723;55.684;37.928;2022-09-25T03:56:24;1.88;;;1.05;;
28509;SDS011;15723;55.684;37.928;2022-09-25T03:58:54;0.95;;;0.85;;
28509;SDS011;15723;55.684;37.928;2022-09-25T04:01:21;1.90;;;1.10;;
28509;SDS011;15723;55.684;37.928;2022-09-25T04:03:48;0.85;;;0.80;;
28509;SDS011;15723;55.684;37.928;2022-09-25T04:06:16;1.10;;;0.82;;
28509;SDS011;15723;55.684;37.928;2022-09-25T04:08:45;1.13;;;1.00;;
28509;SDS011;15723;55.684;37.928;2022-09-25T04:11:13;1.10;;;0.90;;
28509;SDS011;15723;55.684;37.928;2022-09-25T04:13:40;1.30;;;1.17;;
28509;SDS011;15723;55.684;37.928;2022-09-25T04:16:08;3.70;;;1.48;;
28509;SDS011;15723;55.684;37.928;2022-09-25T04:18:35;0.93;;;0.80;;
28509;SDS011;15723;55.684;37.928;2022-09-25T04:21:03;2.17;;;0.85;;
28509;SDS011;15723;55.684;37.928;2022-09-25T04:23:31;1.45;;;1.08;;
28509;SDS011;15723;55.684;37.928;2022-09-25T04:25:57;1.20;;;1.05;;
28509;SDS011;15723;55.684;37.928;2022-09-25T04:28:24;1.63;;;1.00;;
28509;SDS011;15723;55.684;37.928;2022-09-25T04:30:50;3.20;;;1.50;;
28509;SDS011;15723;55.684;37.928;2022-09-25T04:33:17;1.52;;;0.85;;
28509;SDS011;15723;55.684;37.928;2022-09-25T04:36:03;1.17;;;0.82;;
28509;SDS011;15723;55.684;37.928;2022-09-25T04:38:29;1.08;;;0.80;;
28509;SDS011;15723;55.684;37.928;2022-09-25T04:40:57;1.08;;;0.90;;
28509;SDS011;15723;55.684;37.928;2022-09-25T04:43:28;1.95;;;1.00;;
28509;SDS011;15723;55.684;37.928;2022-09-25T04:45:54;1.08;;;0.98;;
28509;SDS011;15723;55.684;37.928;2022-09-25T04:48:43;1.20;;;0.80;;
28509;SDS011;15723;55.684;37.928;2022-09-25T04:51:11;1.75;;;0.93;;
28509;SDS011;15723;55.684;37.928;2022-09-25T04:53:49;2.55;;;1.20;;
28509;SDS011;15723;55.684;37.928;2022-09-25T04:56:16;1.10;;;1.00;;
28509;SDS011;15723;55.684;37.928;2022-09-25T04:58:46;2.17;;;1.10;;
28509;SDS011;15723;55.684;37.928;2022-09-25T05:01:15;1.77;;;1.05;;
28509;SDS011;15723;55.684;37.928;2022-09-25T05:03:42;0.73;;;0.68;;
28509;SDS011;15723;55.684;37.928;2022-09-25T05:06:09;2.42;;;1.20;;
28509;SDS011;15723;55.684;37.928;2022-09-25T05:08:37;1.52;;;1.33;;
28509;SDS011;15723;55.684;37.928;2022-09-25T05:11:04;2.38;;;1.60;;
28509;SDS011;15723;55.684;37.928;2022-09-25T05:13:30;1.83;;;1.30;;
28509;SDS011;15723;55.684;37.928;2022-09-25T05:15:56;1.80;;;1.40;;
28509;SDS011;15723;55.684;37.928;2022-09-25T05:18:23;2.40;;;1.55;;
28509;SDS011;15723;55.684;37.928;2022-09-25T05:20:50;1.50;;;1.15;;
28509;SDS011;15723;55.684;37.928;2022-09-25T05:23:20;1.85;;;1.23;;
28509;SDS011;15723;55.684;37.928;2022-09-25T05:25:51;1.40;;;0.90;;
28509;SDS011;15723;55.684;37.928;2022-09-25T05:28:19;4.47;;;1.23;;
28509;SDS011;15723;55.684;37.928;2022-09-25T05:30:47;1.77;;;0.88;;
28509;SDS011;15723;55.684;37.928;2022-09-25T05:33:14;1.63;;;0.93;;
28509;SDS011;15723;55.684;37.928;2022-09-25T05:35:40;1.85;;;1.05;;
28509;SDS011;15723;55.684;37.928;2022-09-25T05:38:06;0.85;;;0.85;;
28509;SDS011;15723;55.684;37.928;2022-09-25T05:40:33;2.58;;;1.00;;
28509;SDS011;15723;55.684;37.928;2022-09-25T05:43:01;0.95;;;0.85;;
28509;SDS011;15723;55.684;37.928;2022-09-25T05:45:27;2.22;;;0.80;;
28509;SDS011;15723;55.684;37.928;2022-09-25T05:48:00;0.90;;;0.80;;
28509;SDS011;15723;55.684;37.928;2022-09-25T05:50:31;2.05;;;0.90;;
28509;SDS011;15723;55.684;37.928;2022-09-25T05:52:58;2.60;;;0.80;;
28509;SDS011;15723;55.684;37.928;2022-09-25T05:55:27;1.05;;;0.80;;
28509;SDS011;15723;55.684;37.928;2022-09-25T05:58:01;1.25;;;1.05;;
28509;SDS011;15723;55.684;37.928;2022-09-25T06:00:29;0.85;;;0.82;;
28509;SDS011;15723;55.684;37.928;2022-09-25T06:02:59;1.40;;;0.63;;
28509;SDS011;15723;55.684;37.928;2022-09-25T06:05:26;1.55;;;0.73;;
28509;SDS011;15723;55.684;37.928;2022-09-25T06:07:53;0.93;;;0.80;;
28509;SDS011;15723;55.684;37.928;2022-09-25T06:10:19;1.13;;;0.70;;
28509;SDS011;15723;55.684;37.928;2022-09-25T06:12:46;1.95;;;0.80;;
28509;SDS011;15723;55.684;37.928;2022-09-25T06:15:12;0.82;;;0.73;;
28509;SDS011;15723;55.684;37.928;2022-09-25T06:17:39;0.85;;;0.70;;
28509;SDS011;15723;55.684;37.928;2022-09-25T06:22:54;0.88;;;0.60;;
28509;SDS011;15723;55.684;37.928;2022-09-25T06:25:21;0.75;;;0.60;;
28509;SDS011;15723;55.684;37.928;2022-09-25T06:27:57;1.08;;;0.63;;
28509;SDS011;15723;55.684;37.928;2022-09-25T06:30:26;1.27;;;0.80;;
28509;SDS011;15723;55.684;37.928;2022-09-25T06:32:59;0.60;;;0.40;;
28509;SDS011;15723;55.684;37.928;2022-09-25T06:35:27;0.70;;;0.60;;
28509;SDS011;15723;55.684;37.928;2022-09-25T06:37:57;0.50;;;0.40;;
28509;SDS011;15723;55.684;37.928;2022-09-25T06:40:25;0.40;;;0.40;;
28509;SDS011;15723;55.684;37.928;2022-09-25T06:43:05;0.50;;;0.50;;
28509;SDS011;15723;55.684;37.928;2022-09-25T06:45:34;1.25;;;0.80;;
28509;SDS011;15723;55.684;37.928;2022-09-25T06:48:02;1.40;;;1.30;;
28509;SDS011;15723;55.684;37.928;2022-09-25T06:53:08;7.63;;;6.80;;
28509;SDS011;15723;55.684;37.928;2022-09-25T06:55:35;5.82;;;5.18;;
28509;SDS011;15723;55.684;37.928;2022-09-25T06:58:03;9.05;;;8.07;;
28509;SDS011;15723;55.684;37.928;2022-09-25T07:00:31;22.70;;;18.75;;
28509;SDS011;15723;55.684;37.928;2022-09-25T07:02:58;9.68;;;8.68;;
28509;SDS011;15723;55.684;37.928;2022-09-25T07:05:44;12.00;;;10.73;;
28509;SDS011;15723;55.684;37.928;2022-09-25T07:08:17;8.43;;;6.70;;
28509;SDS011;15723;55.684;37.928;2022-09-25T07:10:50;2.92;;;1.83;;
28509;SDS011;15723;55.684;37.928;2022-09-25T07:13:19;7.05;;;5.40;;
28509;SDS011;15723;55.684;37.928;2022-09-25T07:15:59;7.57;;;6.88;;
28509;SDS011;15723;55.684;37.928;2022-09-25T07:18:29;2.33;;;1.60;;
28509;SDS011;15723;55.684;37.928;2022-09-25T07:21:17;6.25;;;5.75;;
28509;SDS011;15723;55.684;37.928;2022-09-25T07:23:46;11.10;;;7.93;;
28509;SDS011;15723;55.684;37.928;2022-09-25T07:26:31;8.32;;;5.53;;
28509;SDS011;15723;55.684;37.928;2022-09-25T07:29:00;0.82;;;0.80;;
28509;SDS011;15723;55.684;37.928;2022-09-25T07:31:29;2.38;;;2.15;;
28509;SDS011;15723;55.684;37.928;2022-09-25T07:33:57;2.00;;;1.60;;
28509;SDS011;15723;55.684;37.928;2022-09-25T07:36:27;1.88;;;1.75;;
28509;SDS011;15723;55.684;37.928;2022-09-25T07:38:54;1.80;;;1.48;;
28509;SDS011;15723;55.684;37.928;2022-09-25T07:41:21;2.45;;;2.03;;
28509;SDS011;15723;55.684;37.928;2022-09-25T07:43:52;2.67;;;2.47;;
28509;SDS011;15723;55.684;37.928;2022-09-25T07:46:22;4.22;;;2.47;;
28509;SDS011;15723;55.684;37.928;2022-09-25T07:48:53;3.30;;;2.47;;
28509;SDS011;15723;55.684;37.928;2022-09-25T07:51:19;3.38;;;2.50;;
28509;SDS011;15723;55.684;37.928;2022-09-25T07:53:49;4.13;;;2.60;;
28509;SDS011;15723;55.684;37.928;2022-09-25T07:56:15;4.97;;;2.50;;
28509;SDS011;15723;55.684;37.928;2022-09-25T07:58:45;4.45;;;3.42;;
28509;SDS011;15723;55.684;37.928;2022-09-25T08:01:12;4.00;;;3.15;;
28509;SDS011;15723;55.684;37.928;2022-09-25T08:03:39;5.28;;;4.35;;
28509;SDS011;15723;55.684;37.928;2022-09-25T08:06:11;4.40;;;3.80;;
28509;SDS011;15723;55.684;37.928;2022-09-25T08:08:57;4.30;;;2.70;;
28509;SDS011;15723;55.684;37.928;2022-09-25T08:11:23;3.08;;;2.72;;
28509;SDS011;15723;55.684;37.928;2022-09-25T08:14:09;2.92;;;2.33;;
28509;SDS011;15723;55.684;37.928;2022-09-25T08:16:38;2.75;;;2.15;;
28509;SDS011;15723;55.684;37.928;2022-09-25T08:19:05;4.07;;;1.90;;
28509;SDS011;15723;55.684;37.928;2022-09-25T08:21:32;2.22;;;1.40;;
28509;SDS011;15723;55.684;37.928;2022-09-25T08:23:59;1.23;;;1.08;;
28509;SDS011;15723;55.684;37.928;2022-09-25T08:26:26;2.92;;;1.80;;
28509;SDS011;15723;55.684;37.928;2022-09-25T08:28:56;4.80;;;2.22;;
28509;SDS011;15723;55.684;37.928;2022-09-25T08:31:23;3.45;;;2.15;;
28509;SDS011;15723;55.684;37.928;2022-09-25T08:33:50;2.97;;;1.67;;
28509;SDS011;15723;55.684;37.928;2022-09-25T08:36:16;2.83;;;1.83;;
28509;SDS011;15723;55.684;37.928;2022-09-25T08:38:43;4.50;;;2.47;;
28509;SDS011;15723;55.684;37.928;2022-09-25T08:41:22;3.63;;;2.05;;
28509;SDS011;15723;55.684;37.928;2022-09-25T08:44:18;2.63;;;1.67;;
28509;SDS011;15723;55.684;37.928;2022-09-25T08:50:11;0.80;;;0.73;;
28509;SDS011;15723;55.684;37.928;2022-09-25T08:52:49;2.40;;;0.93;;
28509;SDS011;15723;55.684;37.928;2022-09-25T08:55:26;3.28;;;0.80;;
28509;SDS011;15723;55.684;37.928;2022-09-25T08:58:20;2.53;;;1.10;;
28509;SDS011;15723;55.684;37.928;2022-09-25T09:00:54;1.60;;;1.10;;
28509;SDS011;15723;55.684;37.928;2022-09-25T09:03:24;0.80;;;0.80;;
28509;SDS011;15723;55.684;37.928;2022-09-25T09:06:05;2.35;;;0.80;;
28509;SDS011;15723;55.684;37.928;2022-09-25T09:08:37;1.25;;;0.98;;
28509;SDS011;15723;55.684;37.928;2022-09-25T09:11:19;1.00;;;0.93;;
28509;SDS011;15723;55.684;37.928;2022-09-25T09:14:13;0.80;;;0.73;;
28509;SDS011;15723;55.684;37.928;2022-09-25T09:16:59;1.52;;;1.20;;
28509;SDS011;15723;55.684;37.928;2022-09-25T09:19:52;1.98;;;1.38;;
28509;SDS011;15723;55.684;37.928;2022-09-25T09:22:25;4.13;;;1.95;;
28509;SDS011;15723;55.684;37.928;2022-09-25T09:34:02;3.40;;;2.60;;
28509;SDS011;15723;55.684;37.928;2022-09-25T09:36:54;2.88;;;2.58;;
28509;SDS011;15723;55.684;37.928;2022-09-25T09:39:58;3.40;;;2.88;;
28509;SDS011;15723;55.684;37.928;2022-09-25T09:48:13;3.25;;;2.40;;
28509;SDS011;15723;55.684;37.928;2022-09-25T09:51:19;2.45;;;1.48;;
28509;SDS011;15723;55.684;37.928;2022-09-25T09:53:53;2.90;;;1.80;;
28509;SDS011;15723;55.684;37.928;2022-09-25T09:56:27;2.20;;;1.90;;
28509;SDS011;15723;55.684;37.928;2022-09-25T09:59:01;4.82;;;2.85;;
28509;SDS011;15723;55.684;37.928;2022-09-25T10:01:31;2.47;;;2.28;;
28509;SDS011;15723;55.684;37.928;2022-09-25T10:06:52;3.70;;;2.45;;
28509;SDS011;15723;55.684;37.928;2022-09-25T10:09:26;2.45;;;2.00;;
28509;SDS011;15723;55.684;37.928;2022-09-25T10:11:56;2.63;;;2.15;;
28509;SDS011;15723;55.684;37.928;2022-09-25T10:14:29;2.67;;;2.30;;
28509;SDS011;15723;55.684;37.928;2022-09-25T10:16:58;4.10;;;2.38;;
28509;SDS011;15723;55.684;37.928;2022-09-25T10:19:27;1.48;;;1.30;;
28509;SDS011;15723;55.684;37.928;2022-09-25T10:22:03;1.85;;;1.52;;
28509;SDS011;15723;55.684;37.928;2022-09-25T10:24:47;2.47;;;1.80;;
28509;SDS011;15723;55.684;37.928;2022-09-25T10:38:05;4.00;;;2.88;;
28509;SDS011;15723;55.684;37.928;2022-09-25T10:40:44;3.80;;;2.70;;
28509;SDS011;15723;55.684;37.928;2022-09-25T10:43:17;4.35;;;3.10;;
28509;SDS011;15723;55.684;37.928;2022-09-25T10:45:48;6.13;;;2.50;;
28509;SDS011;15723;55.684;37.928;2022-09-25T10:48:32;2.53;;;2.28;;
28509;SDS011;15723;55.684;37.928;2022-09-25T10:51:19;7.18;;;4.20;;
28509;SDS011;15723;55.684;37.928;2022-09-25T10:53:47;5.97;;;4.50;;
28509;SDS011;15723;55.684;37.928;2022-09-25T10:56:22;5.63;;;3.65;;
28509;SDS011;15723;55.684;37.928;2022-09-25T10:58:58;6.43;;;4.22;;
28509;SDS011;15723;55.684;37.928;2022-09-25T11:01:31;3.45;;;2.75;;
28509;SDS011;15723;55.684;37.928;2022-09-25T11:07:03;4.07;;;2.92;;
28509;SDS011;15723;55.684;37.928;2022-09-25T11:12:10;2.65;;;2.45;;
28509;SDS011;15723;55.684;37.928;2022-09-25T11:14:44;5.97;;;2.83;;
28509;SDS011;15723;55.684;37.928;2022-09-25T11:17:36;3.28;;;2.90;;
28509;SDS011;15723;55.684;37.928;2022-09-25T11:20:24;7.57;;;3.75;;
28509;SDS011;15723;55.684;37.928;2022-09-25T11:28:25;16.10;;;10.60;;
28509;SDS011;15723;55.684;37.928;2022-09-25T11:30:58;9.70;;;6.22;;
28509;SDS011;15723;55.684;37.928;2022-09-25T11:36:37;5.82;;;3.42;;
28509;SDS011;15723;55.684;37.928;2022-09-25T11:39:44;4.45;;;3.42;;
28509;SDS011;15723;55.684;37.928;2022-09-25T11:42:37;6.93;;;3.58;;
28509;SDS011;15723;55.684;37.928;2022-09-25T11:45:31;4.13;;;2.78;;
28509;SDS011;15723;55.684;37.928;2022-09-25T12:01:51;4.25;;;3.00;;
28509;SDS011;15723;55.684;37.928;2022-09-25T12:04:52;4.15;;;2.88;;
28509;SDS011;15723;55.684;37.928;2022-09-25T12:08:01;3.65;;;2.65;;
28509;SDS011;15723;55.684;37.928;2022-09-25T12:10:35;4.43;;;4.00;;
28509;SDS011;15723;55.684;37.928;2022-09-25T12:13:17;4.35;;;3.63;;
28509;SDS011;15723;55.684;37.928;2022-09-25T12:18:58;3.78;;;3.35;;
28509;SDS011;15723;55.684;37.928;2022-09-25T12:24:36;4.72;;;3.45;;
28509;SDS011;15723;55.684;37.928;2022-09-25T12:32:50;4.82;;;3.38;;
28509;SDS011;15723;55.684;37.928;2022-09-25T12:35:28;3.63;;;3.10;;
28509;SDS011;15723;55.684;37.928;2022-09-25T12:38:04;3.92;;;3.42;;
28509;SDS011;15723;55.684;37.928;2022-09-25T12:44:21;4.32;;;3.92;;
28509;SDS011;15723;55.684;37.928;2022-09-25T12:46:54;4.85;;;4.38;;
28509;SDS011;15723;55.684;37.928;2022-09-25T12:49:37;3.40;;;2.80;;
28509;SDS011;15723;55.684;37.928;2022-09-25T12:52:14;5.65;;;4.35;;
28509;SDS011;15723;55.684;37.928;2022-09-25T12:57:38;7.03;;;5.43;;
28509;SDS011;15723;55.684;37.928;2022-09-25T13:00:37;7.70;;;6.78;;
28509;SDS011;15723;55.684;37.928;2022-09-25T13:03:10;10.27;;;8.55;;
28509;SDS011;15723;55.684;37.928;2022-09-25T13:05:42;10.65;;;9.55;;
28509;SDS011;15723;55.684;37.928;2022-09-25T13:08:26;9.07;;;8.17;;
28509;SDS011;15723;55.684;37.928;2022-09-25T13:11:02;9.60;;;7.13;;
28509;SDS011;15723;55.684;37.928;2022-09-25T13:13:45;8.80;;;5.88;;
28509;SDS011;15723;55.684;37.928;2022-09-25T13:16:16;7.82;;;6.65;;
28509;SDS011;15723;55.684;37.928;2022-09-25T13:18:46;7.20;;;6.15;;
28509;SDS011;15723;55.684;37.928;2022-09-25T13:21:23;5.75;;;4.60;;
28509;SDS011;15723;55.684;37.928;2022-09-25T13:24:15;4.35;;;3.40;;
28509;SDS011;15723;55.684;37.928;2022-09-25T13:26:44;4.63;;;4.22;;
28509;SDS011;15723;55.684;37.928;2022-09-25T13:29:26;8.35;;;4.35;;
28509;SDS011;15723;55.684;37.928;2022-09-25T13:37:45;2.97;;;2.72;;
28509;SDS011;15723;55.684;37.928;2022-09-25T13:40:17;6.10;;;3.70;;
28509;SDS011;15723;55.684;37.928;2022-09-25T13:43:15;5.10;;;3.83;;
28509;SDS011;15723;55.684;37.928;2022-09-25T13:48:51;5.38;;;4.30;;
28509;SDS011;15723;55.684;37.928;2022-09-25T13:53:53;4.25;;;3.85;;
28509;SDS011;15723;55.684;37.928;2022-09-25T13:56:26;5.75;;;4.20;;
28509;SDS011;15723;55.684;37.928;2022-09-25T14:01:31;5.88;;;4.28;;
28509;SDS011;15723;55.684;37.928;2022-09-25T14:04:09;9.45;;;4.70;;
28509;SDS011;15723;55.684;37.928;2022-09-25T14:06:44;6.85;;;4.05;;
28509;SDS011;15723;55.684;37.928;2022-09-25T14:09:13;3.50;;;3.20;;
28509;SDS011;15723;55.684;37.928;2022-09-25T14:11:43;6.15;;;4.22;;
28509;SDS011;15723;55.684;37.928;2022-09-25T14:15:25;3.40;;;2.53;;
28509;SDS011;15723;55.684;37.928;2022-09-25T14:17:33;3.38;;;3.05;;
28509;SDS011;15723;55.684;37.928;2022-09-25T14:20:03;3.47;;;2.65;;
28509;SDS011;15723;55.684;37.928;2022-09-25T14:22:52;6.13;;;2.90;;
28509;SDS011;15723;55.684;37.928;2022-09-25T14:25:31;8.00;;;3.35;;
28509;SDS011;15723;55.684;37.928;2022-09-25T14:28:01;6.32;;;3.22;;
28509;SDS011;15723;55.684;37.928;2022-09-25T14:30:29;10.75;;;2.97;;
28509;SDS011;15723;55.684;37.928;2022-09-25T14:35:49;3.08;;;2.78;;
28509;SDS011;15723;55.684;37.928;2022-09-25T14:46:17;2.92;;;2.25;;
28509;SDS011;15723;55.684;37.928;2022-09-25T14:48:52;4.00;;;2.90;;
28509;SDS011;15723;55.684;37.928;2022-09-25T14:51:37;4.40;;;2.80;;
28509;SDS011;15723;55.684;37.928;2022-09-25T14:54:09;5.95;;;3.95;;
28509;SDS011;15723;55.684;37.928;2022-09-25T14:56:43;6.72;;;4.43;;
28509;SDS011;15723;55.684;37.928;2022-09-25T14:59:19;5.88;;;3.45;;
28509;SDS011;15723;55.684;37.928;2022-09-25T15:01:54;5.32;;;3.85;;
28509;SDS011;15723;55.684;37.928;2022-09-25T15:04:27;7.45;;;4.75;;
28509;SDS011;15723;55.684;37.928;2022-09-25T15:09:36;5.25;;;3.28;;
28509;SDS011;15723;55.684;37.928;2022-09-25T15:12:20;4.32;;;2.97;;
28509;SDS011;15723;55.684;37.928;2022-09-25T15:15:11;2.75;;;2.35;;
28509;SDS011;15723;55.684;37.928;2022-09-25T15:17:48;3.88;;;3.53;;
28509;SDS011;15723;55.684;37.928;2022-09-25T15:20:21;4.85;;;3.40;;
28509;SDS011;15723;55.684;37.928;2022-09-25T15:25:23;6.38;;;3.85;;
28509;SDS011;15723;55.684;37.928;2022-09-25T15:27:53;4.38;;;3.75;;
28509;SDS011;15723;55.684;37.928;2022-09-25T15:30:20;5.78;;;3.60;;
28509;SDS011;15723;55.684;37.928;2022-09-25T15:32:47;4.75;;;3.60;;
28509;SDS011;15723;55.684;37.928;2022-09-25T15:35:22;7.47;;;4.55;;
28509;SDS011;15723;55.684;37.928;2022-09-25T15:38:09;7.13;;;4.07;;
28509;SDS011;15723;55.684;37.928;2022-09-25T15:40:37;6.28;;;4.30;;
28509;SDS011;15723;55.684;37.928;2022-09-25T15:43:12;6.10;;;4.72;;
28509;SDS011;15723;55.684;37.928;2022-09-25T15:45:42;10.98;;;4.70;;
28509;SDS011;15723;55.684;37.928;2022-09-25T15:48:29;7.15;;;4.72;;
28509;SDS011;15723;55.684;37.928;2022-09-25T15:51:01;8.52;;;4.60;;
28509;SDS011;15723;55.684;37.928;2022-09-25T15:53:35;6.57;;;3.88;;
28509;SDS011;15723;55.684;37.928;2022-09-25T15:59:05;7.10;;;3.95;;
28509;SDS011;15723;55.684;37.928;2022-09-25T16:02:14;5.45;;;3.90;;
28509;SDS011;15723;55.684;37.928;2022-09-25T16:05:03;4.85;;;3.70;;
28509;SDS011;15723;55.684;37.928;2022-09-25T16:07:39;5.28;;;3.38;;
28509;SDS011;15723;55.684;37.928;2022-09-25T16:17:55;3.83;;;2.78;;
28509;SDS011;15723;55.684;37.928;2022-09-25T16:20:28;3.22;;;2.50;;
28509;SDS011;15723;55.684;37.928;2022-09-25T16:23:01;6.95;;;3.20;;
28509;SDS011;15723;55.684;37.928;2022-09-25T16:25:31;5.57;;;3.08;;
28509;SDS011;15723;55.684;37.928;2022-09-25T16:28:24;4.70;;;3.00;;
28509;SDS011;15723;55.684;37.928;2022-09-25T16:30:59;4.78;;;3.58;;
28509;SDS011;15723;55.684;37.928;2022-09-25T16:33:29;4.85;;;3.88;;
28509;SDS011;15723;55.684;37.928;2022-09-25T16:36:00;5.18;;;3.95;;
28509;SDS011;15723;55.684;37.928;2022-09-25T16:38:34;5.93;;;3.70;;
28509;SDS011;15723;55.684;37.928;2022-09-25T16:43:34;6.70;;;3.92;;
28509;SDS011;15723;55.684;37.928;2022-09-25T16:46:14;5.18;;;4.10;;
28509;SDS011;15723;55.684;37.928;2022-09-25T16:48:46;6.93;;;5.05;;
28509;SDS011;15723;55.684;37.928;2022-09-25T16:51:23;9.05;;;5.60;;
28509;SDS011;15723;55.684;37.928;2022-09-25T16:53:56;8.90;;;6.07;;
28509;SDS011;15723;55.684;37.928;2022-09-25T16:56:24;10.30;;;6.75;;
28509;SDS011;15723;55.684;37.928;2022-09-25T16:58:54;11.55;;;7.55;;
28509;SDS011;15723;55.684;37.928;2022-09-25T17:01:24;11.70;;;6.68;;
28509;SDS011;15723;55.684;37.928;2022-09-25T17:03:52;11.70;;;7.15;;
28509;SDS011;15723;55.684;37.928;2022-09-25T17:06:25;8.55;;;6.32;;
28509;SDS011;15723;55.684;37.928;2022-09-25T17:08:52;11.05;;;7.03;;
28509;SDS011;15723;55.684;37.928;2022-09-25T17:11:19;15.43;;;7.10;;
28509;SDS011;15723;55.684;37.928;2022-09-25T17:13:47;13.07;;;7.45;;
28509;SDS011;15723;55.684;37.928;2022-09-25T17:16:14;28.35;;;7.85;;
28509;SDS011;15723;55.684;37.928;2022-09-25T17:18:41;12.63;;;7.72;;
28509;SDS011;15723;55.684;37.928;2022-09-25T17:21:11;17.75;;;8.45;;
28509;SDS011;15723;55.684;37.928;2022-09-25T17:23:39;16.58;;;7.53;;
28509;SDS011;15723;55.684;37.928;2022-09-25T17:26:17;13.23;;;7.18;;
28509;SDS011;15723;55.684;37.928;2022-09-25T17:28:47;16.20;;;6.97;;
28509;SDS011;15723;55.684;37.928;2022-09-25T17:31:19;17.17;;;7.15;;
28509;SDS011;15723;55.684;37.928;2022-09-25T17:33:47;13.85;;;6.82;;
28509;SDS011;15723;55.684;37.928;2022-09-25T17:36:17;21.48;;;8.77;;
28509;SDS011;15723;55.684;37.928;2022-09-25T17:38:43;22.73;;;8.40;;
28509;SDS011;15723;55.684;37.928;2022-09-25T17:43:48;16.10;;;8.70;;
28509;SDS011;15723;55.684;37.928;2022-09-25T17:46:15;17.88;;;9.40;;
28509;SDS011;15723;55.684;37.928;2022-09-25T17:48:43;14.30;;;8.43;;
28509;SDS011;15723;55.684;37.928;2022-09-25T17:51:19;15.25;;;8.85;;